Time;durP1;ratioP1;P1;durP2;ratioP2;P2;SDS_P1;SDS_P2;PMS_P1;PMS_P2;Temp;Humidity;BMP_temperature;BMP_pressure;BME280_temperature;BME280_humidity;BME280_pressure;Samples;Min_cycle;Max_cycle;Signal;HPM_P1;HPM_P2
2021/06/07 00:02:21;;;;;;;7.13;5.25;;;;;;;16.60;71.04;99769.13;4918371;29;20390;-71
2021/06/07 00:04:50;;;;;;;7.20;5.45;;;;;;;16.62;71.43;99763.06;4918585;29;20048;-71
2021/06/07 00:07:20;;;;;;;7.83;5.50;;;;;;;16.79;71.57;99760.09;4918224;29;20048;-71
2021/06/07 00:09:48;;;;;;;8.60;5.88;;;;;;;16.93;71.31;99768.31;4918765;29;20060;-71
2021/06/07 00:12:18;;;;;;;7.20;5.63;;;;;;;16.96;71.67;99768.25;4918155;29;20044;-72
2021/06/07 00:14:46;;;;;;;10.70;6.63;;;;;;;16.97;71.78;99764.75;4918177;29;20071;-71
2021/06/07 00:17:15;;;;;;;8.10;5.75;;;;;;;17.01;71.71;99771.53;4918287;29;20048;-71
2021/06/07 00:19:43;;;;;;;7.93;6.20;;;;;;;17.01;71.91;99774.09;4918034;29;20044;-71
2021/06/07 00:22:12;;;;;;;8.07;5.88;;;;;;;16.97;71.52;99775.06;4918337;29;20048;-71
2021/06/07 00:24:43;;;;;;;9.68;5.90;;;;;;;16.90;71.74;99778.69;4917999;29;20487;-71
2021/06/07 00:27:11;;;;;;;10.02;6.40;;;;;;;16.82;71.73;99780.59;4916756;29;20051;-71
2021/06/07 00:29:39;;;;;;;8.77;6.30;;;;;;;16.84;71.98;99784.03;4917896;29;20044;-71
2021/06/07 00:32:08;;;;;;;8.85;6.32;;;;;;;16.87;72.10;99781.34;4917874;29;20040;-71
2021/06/07 00:34:37;;;;;;;7.32;5.97;;;;;;;16.85;72.07;99785.69;4917812;29;20077;-71
2021/06/07 00:37:06;;;;;;;8.30;6.10;;;;;;;16.89;72.40;99782.19;4917864;29;20173;-72
2021/06/07 00:39:34;;;;;;;7.37;5.97;;;;;;;16.90;72.24;99778.69;4917593;29;20491;-72
2021/06/07 00:42:05;;;;;;;8.88;6.05;;;;;;;16.84;72.17;99773.72;4917725;29;20131;-71
2021/06/07 00:44:34;;;;;;;9.90;6.22;;;;;;;16.71;72.70;99767.13;4917735;29;20059;-71
2021/06/07 00:47:03;;;;;;;9.35;6.90;;;;;;;16.63;72.81;99771.63;4917630;29;20103;-71
2021/06/07 00:49:32;;;;;;;12.00;6.65;;;;;;;16.63;72.93;99764.75;4917623;29;20056;-71
2021/06/07 00:52:01;;;;;;;10.25;6.30;;;;;;;16.59;72.93;99762.28;4917573;29;20521;-72
2021/06/07 00:54:30;;;;;;;;;;;;;;;16.52;73.14;99773.63;4917981;29;20052;-71
2021/06/07 00:56:58;;;;;;;10.73;6.25;;;;;;;16.56;73.23;99773.50;4916207;29;19947;-71
2021/06/07 00:59:28;;;;;;;8.80;6.05;;;;;;;16.58;73.14;99770.91;4917476;29;20590;-71
2021/06/07 01:01:57;;;;;;;8.13;5.72;;;;;;;16.52;73.26;99761.59;4917556;29;20142;-71
2021/06/07 01:04:26;;;;;;;8.63;6.47;;;;;;;16.60;73.23;99766.56;4917397;29;20040;-71
2021/06/07 01:06:54;;;;;;;9.85;6.38;;;;;;;16.50;73.33;99757.31;4917399;29;20044;-71
2021/06/07 01:09:23;;;;;;;9.70;6.20;;;;;;;16.43;73.26;99766.94;4917672;29;20083;-71
2021/06/07 01:11:51;;;;;;;8.77;6.40;;;;;;;16.32;73.64;99763.72;4917341;29;20075;-71
2021/06/07 01:14:20;;;;;;;7.25;5.80;;;;;;;16.42;73.78;99774.66;4917667;29;20051;-71
2021/06/07 01:16:50;;;;;;;8.63;6.10;;;;;;;16.49;73.33;99763.34;4917270;29;20132;-71
2021/06/07 01:19:19;;;;;;;10.10;7.18;;;;;;;16.42;73.27;99759.22;4917634;29;20053;-71
2021/06/07 01:21:48;;;;;;;12.35;7.43;;;;;;;16.30;72.79;99762.91;4917347;29;20047;-71
2021/06/07 01:24:27;;;;;;;10.48;7.05;;;;;;;16.16;72.75;99774.41;4917387;29;20052;-71
2021/06/07 01:26:56;;;;;;;11.18;7.00;;;;;;;15.98;73.38;99768.78;4917819;29;20052;-71
2021/06/07 01:29:35;;;;;;;10.35;6.70;;;;;;;15.98;73.45;99762.78;4917360;29;20080;-71
2021/06/07 01:32:05;;;;;;;8.35;6.60;;;;;;;15.97;73.12;99763.66;4917131;29;20048;-71
2021/06/07 01:34:34;;;;;;;6.27;5.07;;;;;;;15.93;73.06;99769.75;4917484;29;20426;-71
2021/06/07 01:37:13;;;;;;;8.93;6.30;;;;;;;15.86;73.36;99771.59;4917163;29;20464;-71
2021/06/07 01:39:43;;;;;;;7.93;5.82;;;;;;;15.73;73.25;99767.59;4916895;29;20059;-71
2021/06/07 01:42:23;;;;;;;7.93;5.60;;;;;;;15.60;73.35;99768.69;4917197;29;20059;-71
2021/06/07 01:45:03;;;;;;;8.07;5.53;;;;;;;15.60;73.59;99775.56;4917244;29;20063;-71
2021/06/07 01:47:43;;;;;;;9.82;5.45;;;;;;;15.76;73.67;99774.41;4917401;29;20143;-71
2021/06/07 01:50:23;;;;;;;7.70;5.15;;;;;;;15.89;72.29;99774.13;4917192;29;20521;-71
2021/06/07 01:53:04;;;;;;;7.55;5.38;;;;;;;15.95;71.75;99773.16;4917134;29;20499;-71
2021/06/07 01:55:47;;;;;;;8.57;4.85;;;;;;;15.91;71.81;99780.06;4917076;29;20044;-71
2021/06/07 01:58:18;;;;;;;7.45;5.55;;;;;;;15.75;71.66;99783.84;4916973;29;20052;-72
2021/06/07 02:00:59;;;;;;;9.35;5.50;;;;;;;15.45;72.13;99781.88;4916993;29;20048;-71
2021/06/07 02:03:39;;;;;;;7.95;5.22;;;;;;;15.24;72.46;99784.78;4917074;29;20058;-71
2021/06/07 02:06:09;;;;;;;8.52;5.25;;;;;;;15.11;72.59;99780.75;4917233;29;20090;-71
2021/06/07 02:08:39;;;;;;;7.28;5.28;;;;;;;15.08;73.04;99780.81;4917240;29;20076;-72
2021/06/07 02:11:12;;;;;;;8.38;5.45;;;;;;;14.96;73.59;99786.16;4916869;29;20060;-71
2021/06/07 02:13:41;;;;;;;10.68;5.70;;;;;;;14.90;73.55;99783.69;4916889;29;20048;-71
2021/06/07 02:16:15;;;;;;;8.18;5.47;;;;;;;14.90;73.69;99787.09;4917923;29;20076;-72
2021/06/07 02:18:44;;;;;;;8.02;5.75;;;;;;;14.92;74.26;99784.50;4920282;29;20070;-71
2021/06/07 02:21:17;;;;;;;8.27;5.55;;;;;;;15.07;73.87;99785.09;4920192;29;20063;-71
2021/06/07 02:23:46;;;;;;;8.45;5.28;;;;;;;15.25;73.17;99789.94;4920210;29;20106;-71
2021/06/07 02:26:17;;;;;;;7.97;4.97;;;;;;;15.40;72.68;99788.81;4920108;29;20139;-71
2021/06/07 02:28:51;;;;;;;9.25;5.30;;;;;;;15.46;72.16;99791.28;4934809;29;20059;-71
2021/06/07 02:31:20;;;;;;;7.38;5.25;;;;;;;15.50;71.58;99790.34;4920009;29;20131;-71
2021/06/07 02:33:50;;;;;;;6.93;4.75;;;;;;;15.53;71.56;99790.28;4920512;29;20119;-71
2021/06/07 02:36:19;;;;;;;10.18;4.82;;;;;;;15.55;70.98;99788.53;4919945;29;20087;-71
2021/06/07 02:38:48;;;;;;;8.25;5.03;;;;;;;15.58;70.77;99791.03;4919663;29;20070;-72
2021/06/07 02:41:19;;;;;;;8.32;5.25;;;;;;;15.51;70.36;99781.75;4920048;29;20451;-71
2021/06/07 02:43:49;;;;;;;7.60;5.00;;;;;;;15.49;70.81;99788.66;4919808;29;20044;-71
2021/06/07 02:46:19;;;;;;;6.75;4.97;;;;;;;15.53;71.03;99795.44;4919698;29;20040;-71
2021/06/07 02:48:48;;;;;;;8.00;5.32;;;;;;;15.54;70.82;99791.13;4934625;29;20059;-71
2021/06/07 02:51:17;;;;;;;6.93;4.90;;;;;;;15.55;70.64;99793.66;4919621;29;20041;-71
2021/06/07 02:53:48;;;;;;;7.50;4.78;;;;;;;15.48;70.37;99797.22;4919555;29;20126;-71
2021/06/07 02:56:19;;;;;;;7.53;5.30;;;;;;;15.40;70.79;99796.53;4919618;29;20056;-71
2021/06/07 02:58:47;;;;;;;6.82;4.82;;;;;;;15.42;70.89;99797.34;4920030;29;20045;-71
2021/06/07 03:01:16;;;;;;;7.70;4.80;;;;;;;15.49;70.73;99798.09;4919475;29;20052;-71
2021/06/07 03:03:45;;;;;;;6.47;4.40;;;;;;;15.52;70.57;99809.19;4919322;29;20490;-71
2021/06/07 03:06:13;;;;;;;8.25;4.90;;;;;;;15.53;70.27;99805.72;4919344;29;20096;-71
2021/06/07 03:08:42;;;;;;;6.78;5.03;;;;;;;15.54;70.25;99804.00;4919356;29;20484;-71
2021/06/07 03:11:13;;;;;;;7.90;4.82;;;;;;;15.52;70.69;99809.19;4919296;29;20067;-71
2021/06/07 03:13:43;;;;;;;11.25;5.40;;;;;;;15.51;70.55;99812.63;4919524;29;20406;-71
2021/06/07 03:16:12;;;;;;;9.40;4.85;;;;;;;15.55;70.56;99814.25;4919265;29;20068;-71
2021/06/07 03:18:42;;;;;;;7.22;4.65;;;;;;;15.56;70.50;99815.09;4933730;29;20435;-71
2021/06/07 03:21:11;;;;;;;8.45;5.10;;;;;;;15.52;70.00;99810.91;4919183;29;20060;-71
2021/06/07 03:23:41;;;;;;;8.25;5.32;;;;;;;15.53;69.85;99813.44;4919054;29;20048;-71
2021/06/07 03:26:09;;;;;;;7.55;4.75;;;;;;;15.53;70.01;99816.00;4919052;29;20048;-71
2021/06/07 03:28:39;;;;;;;8.60;4.43;;;;;;;15.55;70.51;99819.41;4918229;29;20044;-71
2021/06/07 03:31:12;;;;;;;7.65;4.70;;;;;;;15.71;69.68;99819.97;4917601;29;20414;-71
2021/06/07 03:33:41;;;;;;;6.85;4.43;;;;;;;15.86;69.38;99820.50;4918866;29;20056;-71
2021/06/07 03:36:10;;;;;;;8.65;4.65;;;;;;;15.89;69.08;99823.03;4918855;29;20056;-71
2021/06/07 03:38:38;;;;;;;5.15;3.63;;;;;;;15.85;69.19;99834.28;4918344;29;20080;-72
2021/06/07 03:41:08;;;;;;;6.72;4.25;;;;;;;15.70;69.56;99829.41;4917890;29;20099;-71
2021/06/07 03:43:38;;;;;;;8.07;5.30;;;;;;;15.57;70.12;99827.97;4918662;29;20494;-71
2021/06/07 03:46:07;;;;;;;7.68;4.95;;;;;;;15.55;70.49;99829.69;4918711;29;20065;-71
2021/06/07 03:48:37;;;;;;;11.07;5.00;;;;;;;15.64;71.06;99829.53;4918922;29;20095;-71
2021/06/07 03:51:06;;;;;;;7.68;5.60;;;;;;;15.84;70.71;99824.84;4933515;29;20084;-72
2021/06/07 03:53:34;;;;;;;9.13;5.30;;;;;;;16.00;70.57;99827.97;4918708;29;20048;-71
2021/06/07 03:56:03;;;;;;;6.93;5.38;;;;;;;16.17;69.90;99835.34;4918466;29;20092;-71
2021/06/07 03:58:32;;;;;;;7.67;4.90;;;;;;;16.20;69.95;99830.09;4918409;29;20044;-71
2021/06/07 04:01:00;;;;;;;8.82;5.13;;;;;;;16.20;69.42;99830.09;4918380;29;20047;-71
2021/06/07 04:03:29;;;;;;;6.90;4.75;;;;;;;16.13;69.95;99836.28;4918320;29;20060;-71
2021/06/07 04:05:59;;;;;;;9.77;4.97;;;;;;;16.12;70.45;99832.88;4918315;29;20131;-71
2021/06/07 04:08:28;;;;;;;8.93;4.85;;;;;;;16.20;70.55;99830.97;4918825;29;20056;-71
2021/06/07 04:10:57;;;;;;;8.70;5.47;;;;;;;16.38;70.50;99834.88;4918267;29;20435;-71
2021/06/07 04:13:26;;;;;;;10.23;5.50;;;;;;;16.53;69.80;99834.59;4932837;29;20071;-71
2021/06/07 04:15:54;;;;;;;10.25;5.82;;;;;;;16.70;69.99;99832.44;4918088;29;20052;-71
2021/06/07 04:18:23;;;;;;;9.15;6.00;;;;;;;16.89;69.50;99826.00;4932964;29;20044;-71
2021/06/07 04:20:51;;;;;;;8.07;5.10;;;;;;;17.05;69.01;99834.22;4918012;29;20080;-71
2021/06/07 04:23:23;;;;;;;7.43;4.90;;;;;;;17.17;68.47;99834.75;4917996;29;20052;-71
2021/06/07 04:25:52;;;;;;;8.85;5.50;;;;;;;17.30;68.57;99836.13;4917976;29;20079;-71
2021/06/07 04:28:21;;;;;;;7.60;5.30;;;;;;;17.55;68.37;99827.78;4917952;29;20495;-71
2021/06/07 04:30:49;;;;;;;6.00;4.50;;;;;;;17.86;67.48;99831.22;4917901;29;20037;-71
2021/06/07 04:33:18;;;;;;;8.15;4.80;;;;;;;18.14;66.69;99826.97;4917826;29;20048;-71
2021/06/07 04:35:47;;;;;;;8.83;5.23;;;;;;;18.38;65.67;99834.00;4918055;29;20153;-70
2021/06/07 04:38:15;;;;;;;8.48;4.97;;;;;;;18.59;65.09;99833.41;4917859;29;20385;-71
2021/06/07 04:40:45;;;;;;;7.18;5.07;;;;;;;18.82;64.46;99831.81;4917498;29;20063;-71
2021/06/07 04:43:15;;;;;;;9.50;5.05;;;;;;;19.01;63.70;99827.75;4917727;29;20048;-70
2021/06/07 04:45:46;;;;;;;6.53;4.88;;;;;;;19.15;63.56;99831.56;4917650;29;20056;-71
2021/06/07 04:48:15;;;;;;;7.05;4.95;;;;;;;19.37;63.04;99829.13;4917908;29;20443;-71
2021/06/07 04:50:45;;;;;;;6.60;4.77;;;;;;;19.57;62.63;99831.03;4917935;29;20411;-70
2021/06/07 04:53:14;;;;;;;7.85;4.35;;;;;;;19.67;62.04;99830.69;4917877;29;20054;-70
2021/06/07 04:55:46;;;;;;;7.78;4.82;;;;;;;19.85;61.75;99837.78;4917853;29;20067;-71
2021/06/07 04:58:17;;;;;;;6.47;4.70;;;;;;;19.99;61.28;99838.13;4917459;29;20052;-71
2021/06/07 05:00:49;;;;;;;7.47;4.68;;;;;;;20.11;60.70;99841.19;4917464;29;20140;-71
2021/06/07 05:03:19;;;;;;;8.13;5.15;;;;;;;20.19;60.29;99839.16;4917676;29;20388;-71
2021/06/07 05:05:47;;;;;;;7.28;4.47;;;;;;;20.30;59.97;99842.22;4917440;29;20079;-70
2021/06/07 05:08:16;;;;;;;8.88;5.00;;;;;;;20.43;59.80;99833.06;4917389;29;20535;-70
2021/06/07 05:10:45;;;;;;;6.85;4.93;;;;;;;20.49;59.21;99838.03;4917308;29;20047;-71
2021/06/07 05:13:15;;;;;;;7.00;4.80;;;;;;;20.44;59.46;99838.19;4917418;29;20127;-71
2021/06/07 05:15:44;;;;;;;7.57;4.60;;;;;;;20.63;59.37;99834.00;4917596;29;20072;-70
2021/06/07 05:18:14;;;;;;;6.78;4.47;;;;;;;20.72;58.70;99832.78;4917279;29;20045;-70
2021/06/07 05:20:44;;;;;;;6.72;4.80;;;;;;;20.74;58.45;99838.75;4917241;29;20052;-71
2021/06/07 05:23:13;;;;;;;7.18;4.57;;;;;;;20.81;58.09;99827.22;4917283;29;20056;-70
2021/06/07 05:25:43;;;;;;;7.88;4.13;;;;;;;20.92;58.54;99838.03;4917568;29;20090;-70
2021/06/07 05:28:13;;;;;;;;;;;;;;;21.00;58.14;99846.34;4917659;29;20115;-70
2021/06/07 05:30:46;;;;;;;6.72;4.35;;;;;;;21.11;57.92;99848.53;4917203;29;20370;-70
2021/06/07 05:33:17;;;;;;;9.88;5.20;;;;;;;21.15;57.27;99844.91;4917230;29;20056;-70
2021/06/07 05:35:48;;;;;;;5.70;4.10;;;;;;;21.19;57.56;99841.25;4917144;29;20059;-70
2021/06/07 05:38:17;;;;;;;7.05;4.18;;;;;;;21.24;57.44;99840.19;4917111;29;20059;-70
2021/06/07 05:40:47;;;;;;;;;;;;;;;21.32;57.39;99848.50;4916151;29;20060;-70
2021/06/07 05:43:19;;;;;;;7.07;4.55;;;;;;;21.38;57.80;99846.56;4917147;29;20026;-70
2021/06/07 05:45:47;;;;;;;5.90;4.22;;;;;;;21.56;57.14;99843.16;4917108;29;20044;-70
2021/06/07 05:48:16;;;;;;;9.93;4.68;;;;;;;21.70;56.80;99846.88;4917044;29;20076;-70
2021/06/07 05:50:45;;;;;;;7.05;4.93;;;;;;;21.90;56.70;99846.03;4932127;29;20082;-71
2021/06/07 05:53:15;;;;;;;11.87;5.03;;;;;;;22.01;56.19;99843.78;4920688;29;20379;-71
2021/06/07 05:55:44;;;;;;;;;;;;;;;22.10;56.01;99842.56;4919936;29;20529;-71
2021/06/07 05:58:15;;;;;;;7.57;4.78;;;;;;;22.21;55.65;99846.34;4920864;29;19962;-71
2021/06/07 06:00:47;;;;;;;6.97;4.20;;;;;;;22.28;55.65;99842.56;4920652;29;20052;-71
2021/06/07 06:03:15;;;;;;;10.18;4.85;;;;;;;22.32;55.74;99844.09;4920508;29;20048;-71
2021/06/07 06:05:44;;;;;;;9.52;4.88;;;;;;;22.48;55.65;99844.22;4920423;29;20060;-71
2021/06/07 06:08:13;;;;;;;11.63;5.18;;;;;;;22.45;56.02;99845.22;4920402;29;20052;-71
2021/06/07 06:10:42;;;;;;;12.32;4.47;;;;;;;22.64;55.40;99843.47;4920666;29;20051;-71
2021/06/07 06:13:30;;;;;;;7.75;4.30;;;;;;;22.74;54.86;99846.47;4920227;29;20138;-72
2021/06/07 06:16:01;;;;;;;9.65;4.90;;;;;;;22.79;54.74;99846.25;4920303;29;20143;-71
2021/06/07 06:18:30;;;;;;;7.15;4.50;;;;;;;22.90;54.48;99844.81;4934785;29;20044;-70
2021/06/07 06:20:58;;;;;;;7.30;4.40;;;;;;;23.00;54.17;99847.81;4920230;29;20055;-70
2021/06/07 06:23:26;;;;;;;8.32;4.90;;;;;;;23.10;54.08;99849.06;4920120;29;20366;-70
2021/06/07 06:25:55;;;;;;;9.93;5.10;;;;;;;23.23;54.09;99850.13;4918927;29;20052;-71
2021/06/07 06:28:23;;;;;;;8.45;4.55;;;;;;;23.42;53.96;99855.31;4920038;29;20070;-71
2021/06/07 06:30:52;;;;;;;10.43;4.40;;;;;;;23.60;53.55;99854.38;4920039;29;20048;-70
2021/06/07 06:33:22;;;;;;;6.65;4.80;;;;;;;23.73;53.40;99853.66;4919947;29;20048;-71
2021/06/07 06:35:50;;;;;;;8.02;5.68;;;;;;;23.83;53.08;99854.88;4920485;29;20052;-70
2021/06/07 06:38:19;;;;;;;8.07;4.68;;;;;;;23.93;52.92;99855.22;4919800;29;20542;-71
2021/06/07 06:40:48;;;;;;;6.32;4.63;;;;;;;24.00;52.20;99865.25;4919656;29;20656;-70
2021/06/07 06:43:17;;;;;;;6.95;4.20;;;;;;;23.92;51.89;99862.19;4920598;29;20116;-70
2021/06/07 06:45:45;;;;;;;9.10;4.50;;;;;;;23.87;52.20;99859.00;4919733;29;20398;-70
2021/06/07 06:48:14;;;;;;;7.63;4.13;;;;;;;24.07;53.05;99859.78;4919710;29;20044;-70
2021/06/07 06:50:44;;;;;;;10.23;4.55;;;;;;;24.20;52.46;99860.78;4919643;29;20052;-70
2021/06/07 06:53:16;;;;;;;8.13;4.43;;;;;;;24.18;52.24;99850.44;4919595;29;20056;-70
2021/06/07 06:55:46;;;;;;;8.10;4.38;;;;;;;24.32;51.87;99862.75;4919640;29;20062;-70
2021/06/07 06:58:15;;;;;;;7.43;4.70;;;;;;;24.41;52.23;99863.09;4919424;29;20051;-69
2021/06/07 07:00:45;;;;;;;6.25;4.20;;;;;;;24.55;51.49;99857.94;4919472;29;20068;-70
2021/06/07 07:03:16;;;;;;;8.13;4.40;;;;;;;24.70;51.18;99861.47;4919164;29;20056;-70
2021/06/07 07:05:47;;;;;;;5.45;3.90;;;;;;;24.85;50.53;99849.38;4919423;29;20087;-70
2021/06/07 07:08:19;;;;;;;6.05;3.90;;;;;;;24.91;50.13;99852.47;4919450;29;20159;-70
2021/06/07 07:10:48;;;;;;;7.35;4.00;;;;;;;24.84;50.00;99858.97;4919303;29;20048;-70
2021/06/07 07:13:16;;;;;;;7.07;3.93;;;;;;;24.93;49.53;99850.59;4919540;29;20083;-70
2021/06/07 07:15:45;;;;;;;5.77;3.70;;;;;;;24.98;49.34;99856.41;4919193;29;20104;-70
2021/06/07 07:18:13;;;;;;;5.72;3.97;;;;;;;25.15;49.22;99858.91;4918754;29;20127;-70
2021/06/07 07:20:42;;;;;;;6.70;4.40;;;;;;;25.28;48.02;99861.66;4918869;29;20519;-70
2021/06/07 07:23:12;;;;;;;6.13;3.50;;;;;;;25.37;47.26;99857.66;4918909;29;20274;-70
2021/06/07 07:25:42;;;;;;;5.55;3.70;;;;;;;25.26;47.77;99859.16;4919051;29;20103;-70
2021/06/07 07:28:11;;;;;;;5.20;3.35;;;;;;;25.42;47.60;99858.22;4918872;29;20075;-70
2021/06/07 07:30:39;;;;;;;5.20;3.35;;;;;;;25.61;47.14;99856.25;4918903;29;20079;-70
2021/06/07 07:33:11;;;;;;;5.57;3.47;;;;;;;25.65;46.36;99868.22;4918907;29;20064;-70
2021/06/07 07:35:39;;;;;;;4.10;3.20;;;;;;;25.59;45.88;99864.19;4919071;29;20046;-70
2021/06/07 07:38:08;;;;;;;4.60;3.17;;;;;;;25.67;45.62;99861.97;4919027;29;20044;-69
2021/06/07 07:40:41;;;;;;;5.05;3.30;;;;;;;25.69;46.16;99864.50;4918595;29;20502;-70
2021/06/07 07:43:10;;;;;;;6.45;3.70;;;;;;;25.87;46.19;99863.38;4918794;29;20059;-70
2021/06/07 07:45:39;;;;;;;5.20;3.45;;;;;;;25.97;45.63;99869.75;4918952;29;20048;-70
2021/06/07 07:48:09;;;;;;;6.55;3.80;;;;;;;26.16;45.88;99859.84;4918697;29;20095;-70
2021/06/07 07:50:38;;;;;;;6.03;3.40;;;;;;;26.27;46.92;99862.66;4918754;29;20131;-70
2021/06/07 07:53:06;;;;;;;5.22;3.20;;;;;;;26.41;45.75;99861.81;4918808;29;20122;-70
2021/06/07 07:55:35;;;;;;;;;;;;;;;26.57;45.45;99862.50;4918867;29;20130;-70
2021/06/07 07:58:10;;;;;;;5.53;3.50;;;;;;;26.68;44.72;99851.38;4918321;29;19926;-69
2021/06/07 08:00:41;;;;;;;6.57;3.28;;;;;;;26.77;43.92;99861.28;4918422;29;20123;-69
2021/06/07 08:03:10;;;;;;;3.83;3.08;;;;;;;26.91;43.93;99858.59;4918123;29;20059;-69
2021/06/07 08:05:38;;;;;;;4.80;3.28;;;;;;;26.98;43.56;99852.03;4918279;29;20048;-69
2021/06/07 08:08:07;;;;;;;7.28;3.33;;;;;;;27.07;43.24;99859.28;4918302;29;20050;-69
2021/06/07 08:10:36;;;;;;;4.50;3.40;;;;;;;26.94;43.01;99854.00;4918162;29;20060;-69
2021/06/07 08:13:06;;;;;;;5.72;3.92;;;;;;;26.91;43.49;99859.44;4917592;29;20091;-70
2021/06/07 08:15:35;;;;;;;5.95;3.60;;;;;;;26.99;43.14;99856.34;4917764;29;20206;-69
2021/06/07 08:18:04;;;;;;;4.97;3.28;;;;;;;27.10;43.34;99848.59;4918316;29;20382;-69
2021/06/07 08:20:33;;;;;;;7.18;3.65;;;;;;;27.14;43.20;99855.31;4916765;29;20044;-69
2021/06/07 08:23:02;;;;;;;;;;;;;;;27.01;43.52;99854.44;4918452;29;20111;-69
2021/06/07 08:25:32;;;;;;;4.82;3.28;;;;;;;27.04;42.85;99859.50;4918340;29;19927;-69
2021/06/07 08:28:01;;;;;;;4.97;3.13;;;;;;;27.11;42.53;99856.34;4917894;29;20049;-69
2021/06/07 08:30:32;;;;;;;7.60;3.10;;;;;;;27.27;42.46;99856.19;4917936;29;20108;-69
2021/06/07 08:33:13;;;;;;;4.75;3.20;;;;;;;27.29;42.25;99854.31;5111850;27;20350;-68
2021/06/07 08:35:42;;;;;;;4.72;3.30;;;;;;;27.40;42.84;99849.22;5111478;28;20043;-68
2021/06/07 08:38:10;;;;;;;6.50;3.53;;;;;;;27.47;41.30;99852.28;5111332;28;20048;-67
2021/06/07 08:40:39;;;;;;;4.37;2.90;;;;;;;27.37;40.09;99849.41;5111343;28;20040;-67
2021/06/07 08:43:08;;;;;;;5.07;2.75;;;;;;;27.31;40.53;99847.16;5111286;28;20523;-68
2021/06/07 08:45:37;;;;;;;4.78;2.80;;;;;;;27.48;40.35;99849.53;5111196;28;20051;-68
2021/06/07 08:48:07;;;;;;;4.03;3.05;;;;;;;27.46;40.31;99851.44;5111252;28;20048;-68
2021/06/07 08:50:37;;;;;;;4.53;3.10;;;;;;;27.12;40.97;99851.94;5111451;28;20397;-68
2021/06/07 08:53:05;;;;;;;4.82;3.22;;;;;;;26.93;42.00;99841.00;5110071;28;20059;-67
2021/06/07 08:55:35;;;;;;;4.18;2.80;;;;;;;27.30;41.59;99845.50;5111040;28;20065;-68
2021/06/07 08:58:05;;;;;;;5.22;3.28;;;;;;;27.73;41.20;99843.47;5111087;28;20050;-68
2021/06/07 09:00:37;;;;;;;3.78;2.45;;;;;;;28.04;40.20;99840.44;5111012;28;20052;-68
2021/06/07 09:03:09;;;;;;;5.13;3.25;;;;;;;28.35;39.34;99841.72;5110943;28;20221;-68
2021/06/07 09:05:41;;;;;;;4.03;2.92;;;;;;;28.50;38.99;99840.66;5111283;28;20044;-70
2021/06/07 09:08:11;;;;;;;5.18;2.80;;;;;;;28.51;40.29;99847.56;5110848;28;20052;-70
2021/06/07 09:10:42;;;;;;;5.13;3.08;;;;;;;28.22;40.99;99851.44;5110815;28;20160;-69
2021/06/07 09:13:11;;;;;;;4.88;3.10;;;;;;;28.55;41.44;99843.78;5111020;28;20096;-70
2021/06/07 09:15:42;;;;;;;6.55;3.50;;;;;;;28.84;40.57;99834.63;5110682;28;20048;-70
2021/06/07 09:18:12;;;;;;;4.72;3.20;;;;;;;28.93;39.74;99833.97;5110065;28;20040;-69
2021/06/07 09:20:44;;;;;;;6.38;2.90;;;;;;;29.15;41.00;99834.03;5110939;28;20095;-69
2021/06/07 09:23:15;;;;;;;4.10;3.10;;;;;;;29.12;40.81;99834.28;5110292;28;20077;-70
2021/06/07 09:25:45;;;;;;;4.10;2.97;;;;;;;29.15;40.27;99836.66;5110406;28;20554;-70
2021/06/07 09:28:19;;;;;;;4.68;2.85;;;;;;;29.31;40.59;99835.56;5110345;28;20052;-70
2021/06/07 09:30:50;;;;;;;4.45;2.95;;;;;;;29.41;39.11;99836.53;5110251;28;20044;-70
2021/06/07 09:33:33;;;;;;;4.30;3.00;;;;;;;29.47;38.57;99829.00;5110126;28;20082;-69
2021/06/07 09:36:17;;;;;;;4.93;3.13;;;;;;;29.33;37.27;99833.66;5110155;28;20054;-69
2021/06/07 09:39:01;;;;;;;5.25;3.20;;;;;;;29.17;37.65;99826.91;5109687;28;20054;-70
2021/06/07 09:41:32;;;;;;;5.80;3.00;;;;;;;29.17;37.26;99824.25;5109741;28;20083;-70
2021/06/07 09:44:02;;;;;;;4.32;2.95;;;;;;;29.32;38.37;99818.84;5099701;28;20398;-70
2021/06/07 09:46:32;;;;;;;4.43;2.67;;;;;;;29.32;37.23;99813.56;5095299;28;20123;-70
2021/06/07 09:49:06;;;;;;;5.25;2.92;;;;;;;29.36;37.09;99815.00;5096374;28;20067;-71
2021/06/07 09:51:37;;;;;;;3.83;2.75;;;;;;;29.45;37.81;99807.25;5096250;28;20054;-70
2021/06/07 09:54:07;;;;;;;4.55;3.20;;;;;;;29.55;38.10;99804.75;5096288;28;20076;-70
2021/06/07 09:56:47;;;;;;;;;;;;;;;29.70;39.31;99804.44;5096779;28;20469;-70
2021/06/07 09:59:28;;;;;;;4.50;3.03;;;;;;;29.67;37.88;99801.19;5096155;28;19924;-70
2021/06/07 10:01:58;;;;;;;3.90;2.90;;;;;;;29.43;36.62;99803.06;5096179;28;20386;-69
2021/06/07 10:04:52;;;;;;;6.15;2.97;;;;;;;29.25;36.09;99805.28;5096742;28;20366;-69
2021/06/07 10:07:23;;;;;;;3.95;2.67;;;;;;;29.13;36.81;99793.88;5089588;28;20464;-69
2021/06/07 10:10:24;;;;;;;5.22;2.85;;;;;;;29.13;36.51;99801.75;5096101;28;20048;-69
2021/06/07 10:12:59;;;;;;;4.63;3.13;;;;;;;29.20;37.31;99789.84;5092106;28;20075;-69
2021/06/07 10:15:34;;;;;;;5.68;2.97;;;;;;;29.45;38.95;99799.38;5096055;28;20048;-69
2021/06/07 10:18:06;;;;;;;4.30;2.95;;;;;;;29.70;36.72;99795.69;5095995;28;20071;-69
2021/06/07 10:23:15;;;;;;;;;;;;;;;29.70;33.22;99796.53;5096130;28;20539;-69
2021/06/07 10:25:44;;;;;;;3.70;2.40;;;;;;;29.71;33.30;99792.06;5095722;28;19927;-69
2021/06/07 10:28:13;;;;;;;5.03;2.50;;;;;;;29.79;32.39;99793.22;5095604;28;20062;-69
2021/06/07 10:30:45;;;;;;;4.38;2.75;;;;;;;29.92;32.35;99782.56;5095705;28;20040;-70
2021/06/07 10:33:26;;;;;;;5.82;2.55;;;;;;;30.18;34.09;99791.88;5095264;28;20052;-70
2021/06/07 10:35:56;;;;;;;3.88;2.38;;;;;;;30.32;33.99;99775.78;5095489;28;20127;-69
2021/06/07 10:38:31;;;;;;;3.08;2.15;;;;;;;30.44;30.60;99788.00;5095900;28;20075;-69
2021/06/07 10:41:18;;;;;;;3.40;2.13;;;;;;;30.31;29.08;99784.63;5095441;28;20044;-69
2021/06/07 10:43:49;;;;;;;3.95;2.22;;;;;;;30.37;29.88;99784.19;5095604;28;20048;-69
2021/06/07 10:46:28;;;;;;;4.40;2.30;;;;;;;30.60;29.99;99776.19;5095207;28;20071;-69
2021/06/07 10:48:58;;;;;;;3.17;2.10;;;;;;;30.95;31.72;99774.19;5095512;28;20050;-69
2021/06/07 10:51:29;;;;;;;5.80;2.22;;;;;;;31.13;30.97;99775.25;5095331;28;20097;-69
2021/06/07 10:54:28;;;;;;;3.95;2.60;;;;;;;31.33;30.43;99771.78;5095016;28;20048;-69
2021/06/07 10:57:28;;;;;;;3.60;2.30;;;;;;;31.64;31.22;99773.50;5083360;28;20490;-69
2021/06/07 10:59:59;;;;;;;4.90;2.88;;;;;;;31.34;29.73;99773.44;5075221;28;20049;-70
2021/06/07 11:02:34;;;;;;;3.25;2.20;;;;;;;31.30;30.21;99772.03;5074709;28;20047;-69
2021/06/07 11:05:12;;;;;;;5.43;2.67;;;;;;;31.34;28.57;99770.00;5074831;28;20170;-69
2021/06/07 11:07:44;;;;;;;3.53;2.22;;;;;;;31.34;28.76;99768.16;5074692;28;20123;-69
2021/06/07 11:10:25;;;;;;;3.22;2.38;;;;;;;31.08;28.48;99765.09;5074991;28;20057;-69
2021/06/07 11:12:58;;;;;;;3.00;2.17;;;;;;;30.95;28.44;99763.63;5073442;28;20078;-69
2021/06/07 11:15:28;;;;;;;3.85;2.30;;;;;;;30.76;27.78;99763.44;5074550;28;20048;-70
2021/06/07 11:18:17;;;;;;;3.50;2.20;;;;;;;30.60;27.30;99763.84;5074169;28;20041;-70
2021/06/07 11:20:47;;;;;;;3.95;2.58;;;;;;;30.64;28.47;99769.72;5074297;28;20052;-69
2021/06/07 11:23:17;;;;;;;3.83;2.63;;;;;;;30.64;28.39;99764.47;5074259;28;20102;-69
2021/06/07 11:25:51;;;;;;;4.18;2.40;;;;;;;30.52;27.60;99758.41;5074685;28;20049;-69
2021/06/07 11:28:38;;;;;;;3.03;2.08;;;;;;;30.63;27.90;99762.78;5074314;28;20409;-70
2021/06/07 11:31:50;;;;;;;4.47;2.42;;;;;;;30.47;27.50;99748.22;5073687;28;20070;-69
2021/06/07 11:34:41;;;;;;;3.22;2.13;;;;;;;30.32;27.41;99749.44;5074228;28;20058;-69
2021/06/07 11:37:10;;;;;;;4.82;2.22;;;;;;;30.73;27.73;99745.25;5074171;28;20051;-69
2021/06/07 11:39:51;;;;;;;4.00;2.45;;;;;;;30.97;28.70;99745.88;5074081;28;20036;-69
2021/06/07 11:42:22;;;;;;;3.30;2.40;;;;;;;31.13;28.39;99747.09;5074124;28;20079;-69
2021/06/07 11:45:05;;;;;;;3.60;2.30;;;;;;;31.21;28.47;99757.00;5073664;28;20040;-69
2021/06/07 11:47:50;;;;;;;4.95;2.85;;;;;;;31.27;28.32;99748.53;5074034;28;20048;-69
2021/06/07 11:50:25;;;;;;;4.07;2.40;;;;;;;30.94;28.95;99752.25;5073731;28;20559;-69
2021/06/07 11:52:54;;;;;;;4.57;2.40;;;;;;;31.11;29.54;99742.91;5073682;28;20087;-70
2021/06/07 11:55:31;;;;;;;3.88;2.40;;;;;;;31.27;27.75;99743.28;5073793;28;20489;-69
2021/06/07 11:58:19;;;;;;;4.30;2.72;;;;;;;31.27;27.20;99742.44;5073698;28;20048;-70